Time;durP1;ratioP1;P1;durP2;ratioP2;P2;SDS_P1;SDS_P2;PMS_P1;PMS_P2;Temp;Humidity;BMP_temperature;BMP_pressure;BME280_temperature;BME280_humidity;BME280_pressure;Samples;Min_cycle;Max_cycle;Signal;HPM_P1;HPM_P2
2022/06/05 00:00:26;;;;;;;4.35;3.83;;;;;;;21.82;58.64;100618.00;4082209;29;20043;-67
2022/06/05 00:02:41;;;;;;;4.80;3.88;;;;;;;21.83;58.33;100613.56;4076055;29;20043;-68
2022/06/05 00:04:51;;;;;;;5.78;4.15;;;;;;;21.81;58.42;100615.41;4077549;29;20044;-68
2022/06/05 00:07:03;;;;;;;4.85;3.90;;;;;;;21.80;58.54;100611.88;4077391;29;20047;-68
2022/06/05 00:09:18;;;;;;;4.25;3.50;;;;;;;21.80;58.83;100611.88;4081784;29;20055;-67
2022/06/05 00:11:22;;;;;;;;;;;;;;;21.65;59.04;100626.41;4085048;29;20208;-67
2022/06/05 00:13:33;;;;;;;8.43;3.53;;;;;;;21.75;59.06;100624.38;4075768;29;19934;-67
2022/06/05 00:15:36;;;;;;;6.72;4.03;;;;;;;21.68;59.31;100638.69;4074535;29;20044;-67
2022/06/05 00:17:42;;;;;;;5.35;4.00;;;;;;;21.53;59.99;100647.94;4081369;29;20525;-67
2022/06/05 00:19:48;;;;;;;4.82;3.80;;;;;;;21.56;59.74;100656.66;4078678;29;20487;-67
2022/06/05 00:21:50;;;;;;;5.55;4.00;;;;;;;21.56;59.76;100669.88;4077066;29;20035;-67
2022/06/05 00:23:53;;;;;;;7.93;4.07;;;;;;;21.61;59.58;100667.09;4081822;29;20412;-67
2022/06/05 00:26:03;;;;;;;7.25;4.38;;;;;;;21.68;59.53;100673.94;4075693;29;20036;-67
2022/06/05 00:28:14;;;;;;;5.47;3.92;;;;;;;21.75;59.42;100683.44;4081575;29;20059;-67
2022/06/05 00:30:21;;;;;;;5.90;3.95;;;;;;;21.79;59.56;100686.91;4090507;29;20137;-67
2022/06/05 00:32:32;;;;;;;4.85;3.67;;;;;;;21.81;59.49;100685.06;4065977;29;20044;-67
2022/06/05 00:34:35;;;;;;;5.82;3.67;;;;;;;21.76;59.58;100682.56;4082698;29;20043;-67
2022/06/05 00:36:53;;;;;;;4.03;3.05;;;;;;;21.79;59.54;100687.75;4065318;29;20054;-67
2022/06/05 00:39:11;;;;;;;5.07;3.88;;;;;;;21.74;59.61;100679.09;4080058;29;20044;-67
2022/06/05 00:41:32;;;;;;;4.63;3.80;;;;;;;21.76;60.12;100684.34;4081485;29;20054;-67
2022/06/05 00:43:35;;;;;;;4.82;3.75;;;;;;;21.76;60.18;100676.41;4073630;29;20051;-68
2022/06/05 00:45:42;;;;;;;6.30;3.60;;;;;;;21.75;60.20;100667.56;4081378;29;20040;-67
2022/06/05 00:47:45;;;;;;;4.18;3.72;;;;;;;21.76;60.22;100674.63;4077681;29;20047;-67
2022/06/05 00:49:52;;;;;;;5.13;3.70;;;;;;;21.77;59.96;100678.13;4079945;29;20062;-67
2022/06/05 00:51:55;;;;;;;5.15;3.75;;;;;;;21.76;60.40;100668.47;4080805;29;20043;-67
2022/06/05 00:53:58;;;;;;;5.25;3.90;;;;;;;21.76;60.67;100655.22;4081763;29;20122;-67
2022/06/05 00:56:01;;;;;;;6.45;4.10;;;;;;;21.80;60.96;100656.88;4083075;29;20052;-68
2022/06/05 00:58:06;;;;;;;6.55;4.13;;;;;;;21.73;61.12;100642.94;4080623;29;20036;-67
2022/06/05 01:00:13;;;;;;;5.45;4.35;;;;;;;21.68;61.78;100636.91;4079979;29;20063;-67
2022/06/05 01:02:18;;;;;;;6.88;4.78;;;;;;;21.75;61.99;100617.28;4082612;29;20488;-68
2022/06/05 01:04:20;;;;;;;;;;;;;;;21.70;61.94;100592.75;4081621;29;20590;-69
2022/06/05 01:06:24;;;;;;;9.43;5.70;;;;;;;21.74;62.23;100578.53;4076139;29;20029;-68
2022/06/05 01:08:27;;;;;;;15.38;6.07;;;;;;;21.71;62.95;100564.50;4081975;29;20110;-68
2022/06/05 01:10:40;;;;;;;7.72;6.10;;;;;;;21.59;63.45;100563.97;4083938;29;20047;-68
2022/06/05 01:12:54;;;;;;;8.18;5.97;;;;;;;21.55;63.87;100556.16;4081336;29;20408;-69
2022/06/05 01:15:10;;;;;;;10.05;6.32;;;;;;;21.48;64.20;100544.88;4083377;29;20415;-68
2022/06/05 01:17:23;;;;;;;9.85;6.15;;;;;;;21.48;64.71;100544.88;4076113;29;20036;-68
2022/06/05 01:19:39;;;;;;;8.45;6.20;;;;;;;21.39;65.43;100539.84;4083661;29;20139;-68
2022/06/05 01:21:58;;;;;;;8.20;6.50;;;;;;;21.34;65.69;100531.19;4084651;29;20043;-68
2022/06/05 01:24:15;;;;;;;9.27;6.78;;;;;;;21.33;65.91;100529.47;4084336;29;20039;-68
2022/06/05 01:26:28;;;;;;;8.40;6.30;;;;;;;21.28;66.37;100516.38;4083618;29;20440;-68
2022/06/05 01:28:35;;;;;;;9.48;7.40;;;;;;;21.32;66.07;100509.22;4077658;29;20126;-69
2022/06/05 01:30:46;;;;;;;7.57;6.35;;;;;;;21.28;66.03;100506.66;4085542;29;20050;-68
2022/06/05 01:32:55;;;;;;;7.88;6.30;;;;;;;21.27;66.07;100509.34;4084508;29;20131;-69
2022/06/05 01:35:06;;;;;;;6.50;5.75;;;;;;;21.19;66.25;100522.81;4082662;29;20127;-68
2022/06/05 01:37:13;;;;;;;6.75;5.90;;;;;;;21.05;66.61;100532.91;4081159;29;20040;-68
2022/06/05 01:39:22;;;;;;;6.60;5.85;;;;;;;20.87;67.85;100553.63;4085486;29;20492;-68
2022/06/05 01:41:32;;;;;;;10.02;5.40;;;;;;;20.79;68.73;100567.97;4085398;29;20049;-68
2022/06/05 01:43:38;;;;;;;5.45;4.88;;;;;;;20.73;69.04;100576.91;4078092;29;20444;-69
2022/06/05 01:45:45;;;;;;;8.15;5.45;;;;;;;20.67;69.51;100561.22;4083342;29;20434;-68
2022/06/05 01:47:53;;;;;;;8.55;5.50;;;;;;;20.71;70.06;100563.75;4083870;29;20124;-68
2022/06/05 01:50:00;;;;;;;7.60;5.80;;;;;;;20.76;69.81;100553.06;4068474;29;20044;-68
2022/06/05 01:52:08;;;;;;;9.30;5.35;;;;;;;20.80;69.50;100546.78;4084204;29;20050;-68
2022/06/05 01:54:16;;;;;;;11.68;6.13;;;;;;;20.83;70.12;100536.13;4083093;29;20130;-68
2022/06/05 01:56:24;;;;;;;7.93;6.55;;;;;;;20.87;70.29;100536.94;4077776;29;20127;-68
2022/06/05 01:58:35;;;;;;;6.47;5.72;;;;;;;20.83;70.33;100528.19;4082524;29;21905;-68
2022/06/05 02:00:38;;;;;;;8.93;6.78;;;;;;;20.81;70.33;100526.50;4076277;29;20040;-69
2022/06/05 02:02:47;;;;;;;7.50;5.65;;;;;;;20.81;70.29;100518.56;4084530;29;20043;-67
2022/06/05 02:04:56;;;;;;;10.10;5.90;;;;;;;20.79;69.80;100507.19;4079356;29;20047;-68
2022/06/05 02:07:05;;;;;;;8.23;6.47;;;;;;;20.81;70.22;100492.16;4082739;29;20071;-67
2022/06/05 02:09:13;;;;;;;7.50;6.32;;;;;;;20.83;70.40;100485.91;4084991;29;20122;-67
2022/06/05 02:11:21;;;;;;;8.20;6.40;;;;;;;20.83;70.23;100467.44;4084972;29;20135;-67
2022/06/05 02:13:24;;;;;;;6.78;5.78;;;;;;;20.85;70.17;100449.78;4082552;29;20474;-67
2022/06/05 02:15:29;;;;;;;9.93;6.15;;;;;;;20.87;69.79;100425.94;4083791;29;20087;-68
2022/06/05 02:17:35;;;;;;;8.77;6.97;;;;;;;20.84;70.15;100404.91;4077823;29;20522;-68
2022/06/05 02:19:39;;;;;;;6.95;6.25;;;;;;;20.97;69.23;100384.22;4084003;29;20514;-68
2022/06/05 02:21:42;;;;;;;7.35;6.55;;;;;;;20.93;69.06;100357.03;4084542;29;20687;-68
2022/06/05 02:23:45;;;;;;;6.63;6.03;;;;;;;20.99;68.54;100334.84;4075920;29;20127;-69
2022/06/05 02:25:49;;;;;;;8.85;7.30;;;;;;;20.89;68.14;100306.06;4083145;29;20039;-69
2022/06/05 02:27:57;;;;;;;7.20;6.32;;;;;;;20.83;67.76;100279.81;4079626;29;20062;-69
2022/06/05 02:30:00;;;;;;;6.88;5.80;;;;;;;20.89;66.60;100261.13;4081920;29;20043;-69
2022/06/05 02:32:16;;;;;;;5.82;5.20;;;;;;;20.81;65.89;100259.63;4085370;29;20574;-69
2022/06/05 02:34:33;;;;;;;8.48;6.03;;;;;;;20.80;66.10;100253.50;4082628;29;20051;-68
2022/06/05 02:36:46;;;;;;;8.00;5.80;;;;;;;20.64;66.77;100255.72;4076946;29;20048;-68
2022/06/05 02:39:03;;;;;;;8.90;6.75;;;;;;;20.63;67.17;100247.84;4084764;29;20047;-68
2022/06/05 02:41:10;;;;;;;7.75;6.85;;;;;;;20.78;66.00;100236.84;4083334;29;20051;-68
2022/06/05 02:43:20;;;;;;;7.07;5.80;;;;;;;20.75;65.86;100232.50;4076477;29;20047;-69
2022/06/05 02:45:28;;;;;;;8.45;7.00;;;;;;;20.73;65.79;100229.06;4084815;29;20059;-68
2022/06/05 02:47:40;;;;;;;10.35;6.15;;;;;;;20.78;65.38;100226.28;4083628;29;20044;-68
2022/06/05 02:49:50;;;;;;;7.93;6.45;;;;;;;20.81;65.34;100210.31;4060371;29;20052;-68
2022/06/05 02:51:56;;;;;;;6.95;6.07;;;;;;;20.85;64.67;100197.88;4083402;29;20040;-68
2022/06/05 02:54:00;;;;;;;8.05;6.43;;;;;;;20.85;64.18;100185.53;4082582;29;20043;-68
2022/06/05 02:56:07;;;;;;;7.70;6.32;;;;;;;20.81;64.21;100178.63;4083715;29;20488;-68
2022/06/05 02:58:11;;;;;;;6.50;5.55;;;;;;;20.78;64.10;100178.72;4083165;29;20526;-68
2022/06/05 03:00:17;;;;;;;6.00;5.18;;;;;;;20.75;64.10;100189.41;4067321;29;20052;-68
2022/06/05 03:04:56;;;;;;;6.67;4.37;;;;;;;20.63;65.04;100208.22;4057748;29;20040;-68
2022/06/05 03:06:59;;;;;;;;;;;;;;;20.48;65.39;100239.47;4059835;29;20040;-68
2022/06/05 03:09:02;;;;;;;5.95;5.05;;;;;;;20.55;66.09;100267.44;4060190;29;20048;-68
2022/06/05 03:11:05;;;;;;;5.85;4.85;;;;;;;20.60;66.46;100295.50;4081284;29;20067;-68
2022/06/05 03:13:08;;;;;;;6.03;4.38;;;;;;;20.64;66.49;100307.69;4078916;29;20050;-68
2022/06/05 03:15:10;;;;;;;5.90;5.22;;;;;;;20.67;66.19;100321.69;4075528;29;20045;-68
2022/06/05 03:17:14;;;;;;;5.25;4.18;;;;;;;20.66;66.65;100333.19;4084247;29;20036;-68
2022/06/05 03:19:17;;;;;;;7.63;4.32;;;;;;;20.63;66.89;100348.22;4084162;29;20130;-68
2022/06/05 03:21:21;;;;;;;5.85;4.57;;;;;;;20.63;67.02;100361.44;4084484;29;20043;-69
2022/06/05 03:23:25;;;;;;;7.90;4.68;;;;;;;20.60;66.36;100372.09;4061261;29;20228;-68
2022/06/05 03:25:28;;;;;;;5.10;4.47;;;;;;;20.52;67.20;100388.16;4079084;29;20050;-68
2022/06/05 03:27:31;;;;;;;6.88;4.68;;;;;;;20.57;67.20;100410.91;4075360;29;20306;-68
2022/06/05 03:29:34;;;;;;;5.57;5.00;;;;;;;20.57;67.12;100420.56;4080537;29;20059;-68
2022/06/05 03:31:38;;;;;;;8.20;5.18;;;;;;;20.55;67.14;100425.91;4083810;29;20044;-68
2022/06/05 03:33:41;;;;;;;6.50;5.30;;;;;;;20.49;67.24;100430.50;4076771;29;20512;-67
2022/06/05 03:35:46;;;;;;;8.87;5.80;;;;;;;20.52;67.50;100433.06;4083137;29;20050;-68
2022/06/05 03:37:52;;;;;;;7.32;6.10;;;;;;;20.56;67.41;100432.06;4080316;29;20300;-68
2022/06/05 03:39:55;;;;;;;8.45;5.47;;;;;;;20.57;67.54;100444.34;4077720;29;20514;-68
2022/06/05 03:41:58;;;;;;;6.57;5.68;;;;;;;20.60;67.70;100443.41;4082457;29;20047;-68
2022/06/05 03:44:00;;;;;;;6.22;5.57;;;;;;;20.55;67.76;100457.59;4082560;29;20048;-67
2022/06/05 03:46:05;;;;;;;7.72;6.43;;;;;;;20.56;68.28;100483.09;4081965;29;20046;-67
2022/06/05 03:48:09;;;;;;;8.85;6.05;;;;;;;20.53;68.40;100493.75;4073506;29;20732;-67
2022/06/05 03:50:14;;;;;;;8.60;6.88;;;;;;;20.42;68.61;100519.56;4084390;29;20036;-67
2022/06/05 03:52:17;;;;;;;9.00;6.65;;;;;;;20.40;69.14;100558.38;4083566;29;20558;-67
2022/06/05 03:54:21;;;;;;;10.60;6.72;;;;;;;20.39;69.28;100588.31;4076945;29;20060;-67
2022/06/05 03:56:26;;;;;;;9.05;8.15;;;;;;;20.28;69.75;100601.78;4083886;29;20044;-67
2022/06/05 03:58:29;;;;;;;11.73;9.98;;;;;;;20.18;70.25;100589.66;4088043;28;20122;-67
2022/06/05 04:00:32;;;;;;;16.05;13.25;;;;;;;20.02;70.64;100590.03;4076463;29;20130;-68
2022/06/05 04:02:35;;;;;;;15.27;13.80;;;;;;;19.96;71.11;100589.31;4083185;29;20066;-68
2022/06/05 04:04:38;;;;;;;15.52;11.02;;;;;;;19.93;71.26;100578.81;4077048;29;20044;-68
2022/06/05 04:06:41;;;;;;;11.73;8.95;;;;;;;19.90;71.78;100578.91;4083292;29;20408;-69
2022/06/05 04:08:44;;;;;;;11.55;8.95;;;;;;;19.90;71.71;100585.03;4083232;29;20072;-68
2022/06/05 04:10:48;;;;;;;9.07;8.07;;;;;;;19.86;71.71;100583.38;4075521;29;20051;-69
2022/06/05 04:12:51;;;;;;;12.15;8.90;;;;;;;19.87;72.03;100572.81;4082988;29;20062;-68
2022/06/05 04:14:54;;;;;;;10.02;7.90;;;;;;;19.84;72.30;100574.63;4083032;29;20039;-69
2022/06/05 04:16:57;;;;;;;11.90;9.38;;;;;;;19.79;72.36;100580.00;4074623;29;20099;-69
2022/06/05 04:19:01;;;;;;;8.98;8.07;;;;;;;19.85;72.69;100569.31;4082847;29;20548;-68
2022/06/05 04:21:07;;;;;;;9.40;8.30;;;;;;;19.86;72.63;100576.34;4065229;29;20032;-69
2022/06/05 04:23:10;;;;;;;10.90;8.85;;;;;;;19.89;72.80;100572.75;4083166;29;20122;-68
2022/06/05 04:25:15;;;;;;;8.70;7.78;;;;;;;19.87;73.35;100582.47;4082488;29;20046;-69
2022/06/05 04:27:19;;;;;;;9.80;8.90;;;;;;;19.92;72.66;100567.41;4082558;29;20078;-69
2022/06/05 04:29:22;;;;;;;13.80;8.25;;;;;;;19.97;72.28;100576.06;4081668;29;20048;-68
2022/06/05 04:31:26;;;;;;;11.27;8.35;;;;;;;19.91;72.62;100564.81;4074699;29;20055;-69
2022/06/05 04:33:32;;;;;;;10.77;9.70;;;;;;;19.96;72.48;100565.56;4082764;29;20632;-69
2022/06/05 04:35:36;;;;;;;12.15;8.50;;;;;;;19.90;72.97;100568.34;4075453;29;20040;-69
2022/06/05 04:37:39;;;;;;;10.80;8.63;;;;;;;19.90;72.90;100563.06;4081090;29;20039;-69
2022/06/05 04:39:42;;;;;;;10.85;8.68;;;;;;;19.90;73.25;100563.06;4080794;29;20046;-69
2022/06/05 04:41:46;;;;;;;10.23;9.10;;;;;;;19.86;72.96;100549.09;4080385;29;20050;-69
2022/06/05 04:43:50;;;;;;;13.88;10.93;;;;;;;19.87;72.88;100530.59;4083637;29;20043;-69
2022/06/05 04:45:53;;;;;;;13.07;9.85;;;;;;;19.99;73.05;100505.69;4075787;29;20377;-69
2022/06/05 04:47:56;;;;;;;15.27;11.43;;;;;;;19.97;73.12;100496.06;4078898;29;20094;-69
2022/06/05 04:49:59;;;;;;;15.60;11.15;;;;;;;19.94;72.75;100490.84;4082019;29;20562;-69
2022/06/05 04:52:02;;;;;;;13.45;8.90;;;;;;;19.82;73.16;100513.97;4081288;29;20538;-69
2022/06/05 04:54:08;;;;;;;11.93;9.70;;;;;;;19.71;73.95;100521.22;4081879;29;20526;-69
2022/06/05 04:56:13;;;;;;;12.25;9.38;;;;;;;19.67;74.59;100531.00;4082383;29;20036;-69
2022/06/05 04:58:16;;;;;;;12.95;9.70;;;;;;;19.64;74.77;100527.53;4064850;29;20044;-69
2022/06/05 05:00:23;;;;;;;18.52;11.57;;;;;;;19.77;74.53;100525.50;4083483;29;20066;-69
2022/06/05 05:02:26;;;;;;;11.38;10.00;;;;;;;19.65;74.79;100537.19;4056710;29;20440;-68
2022/06/05 05:04:29;;;;;;;11.77;9.50;;;;;;;19.64;75.39;100533.72;4082159;29;20048;-68
2022/06/05 05:06:34;;;;;;;12.82;11.45;;;;;;;19.78;74.94;100525.50;4075333;29;20399;-69
2022/06/05 05:08:37;;;;;;;15.02;11.70;;;;;;;19.87;74.38;100506.84;4076995;29;20063;-69
2022/06/05 05:10:40;;;;;;;14.10;11.77;;;;;;;19.86;73.76;100486.63;4081924;29;20139;-70
2022/06/05 05:12:43;;;;;;;13.95;11.95;;;;;;;19.78;74.27;100474.50;4096991;28;20079;-70
2022/06/05 05:14:46;;;;;;;14.65;11.63;;;;;;;19.67;74.49;100456.28;4082367;29;20440;-70
2022/06/05 05:16:50;;;;;;;13.30;11.93;;;;;;;19.68;73.99;100450.09;4081833;29;20479;-69
2022/06/05 05:18:54;;;;;;;12.70;11.38;;;;;;;19.60;74.08;100444.16;4080671;29;20047;-68
2022/06/05 05:21:05;;;;;;;10.70;9.60;;;;;;;19.42;74.26;100467.41;4081182;29;20140;-68
2022/06/05 05:23:08;;;;;;;11.90;9.38;;;;;;;19.40;75.24;100466.53;4082108;29;20514;-69
2022/06/05 05:25:13;;;;;;;14.82;12.23;;;;;;;19.44;75.40;100455.03;4080981;29;20511;-69
2022/06/05 05:27:16;;;;;;;11.77;9.98;;;;;;;19.52;75.04;100446.94;4080301;29;20048;-69
2022/06/05 05:29:18;;;;;;;8.57;7.68;;;;;;;19.49;75.01;100447.00;4082336;29;20407;-68
2022/06/05 05:31:25;;;;;;;12.23;10.63;;;;;;;19.57;75.12;100425.75;4078340;29;20050;-69
2022/06/05 05:33:29;;;;;;;12.35;11.15;;;;;;;19.68;73.78;100426.34;4083261;29;20044;-69
2022/06/05 05:35:32;;;;;;;12.35;11.07;;;;;;;19.56;74.03;100413.47;4077855;29;20047;-68
2022/06/05 05:37:35;;;;;;;11.68;10.23;;;;;;;19.50;74.47;100419.75;4082062;29;20086;-68
2022/06/05 05:42:08;;;;;;;9.57;8.20;;;;;;;19.44;74.66;100414.63;4080546;29;20427;-68
2022/06/05 05:44:13;;;;;;;9.63;8.63;;;;;;;19.42;74.66;100417.31;4076764;29;20040;-68
2022/06/05 05:46:16;;;;;;;;;;;;;;;19.27;75.59;100431.69;4075956;29;20051;-68
2022/06/05 05:48:19;;;;;;;11.82;9.82;;;;;;;19.34;76.30;100435.91;4082451;29;19922;-68
2022/06/05 05:50:29;;;;;;;11.43;9.85;;;;;;;19.34;76.35;100432.41;4080196;29;20039;-68
2022/06/05 05:52:33;;;;;;;9.48;8.57;;;;;;;19.31;76.38;100437.75;4074152;29;20075;-68
2022/06/05 05:54:36;;;;;;;8.23;7.45;;;;;;;19.34;76.57;100432.41;4080898;29;20046;-69
2022/06/05 05:56:40;;;;;;;9.85;8.85;;;;;;;19.43;76.33;100426.94;4073774;29;20091;-69
2022/06/05 05:58:42;;;;;;;10.25;9.15;;;;;;;19.49;76.07;100418.91;4070919;29;20087;-68
2022/06/05 06:00:45;;;;;;;12.52;10.85;;;;;;;19.58;76.64;100419.56;4083005;29;20131;-69
2022/06/05 06:02:48;;;;;;;12.43;11.32;;;;;;;19.63;76.34;100408.00;4080735;29;20499;-68
2022/06/05 06:04:52;;;;;;;11.40;10.20;;;;;;;19.66;76.63;100393.88;4074406;29;20036;-69
2022/06/05 06:06:57;;;;;;;13.25;12.10;;;;;;;19.76;76.37;100371.66;4074953;29;20491;-69
2022/06/05 06:09:00;;;;;;;14.13;12.57;;;;;;;19.94;75.33;100364.19;4084947;29;20083;-69
2022/06/05 06:11:03;;;;;;;12.38;11.27;;;;;;;19.82;75.60;100368.88;4076934;29;20071;-68
2022/06/05 06:13:06;;;;;;;10.52;8.93;;;;;;;19.75;75.77;100364.63;4082951;29;20438;-68
2022/06/05 06:15:09;;;;;;;12.82;11.63;;;;;;;19.69;76.11;100359.53;4095487;29;20068;-69
2022/06/05 06:17:12;;;;;;;11.60;10.50;;;;;;;19.67;76.72;100362.19;4082238;29;20062;-68
2022/06/05 06:19:15;;;;;;;11.88;10.55;;;;;;;19.71;76.51;100362.97;4078926;29;20048;-69
2022/06/05 06:21:18;;;;;;;11.90;10.65;;;;;;;19.74;76.68;100375.22;4081966;29;20058;-68
2022/06/05 06:23:22;;;;;;;13.45;12.20;;;;;;;19.86;76.28;100367.06;4084432;29;20043;-68
2022/06/05 06:25:25;;;;;;;11.02;9.90;;;;;;;19.87;75.81;100361.72;4084907;29;20043;-69
2022/06/05 06:27:29;;;;;;;11.82;10.63;;;;;;;19.83;76.09;100365.34;4067977;29;20096;-69
2022/06/05 06:29:32;;;;;;;12.68;11.43;;;;;;;19.85;76.23;100365.31;4077874;29;20036;-68
2022/06/05 06:31:38;;;;;;;13.40;12.20;;;;;;;19.91;76.13;100369.56;4081516;29;20087;-68
2022/06/05 06:33:41;;;;;;;11.68;10.57;;;;;;;19.87;76.14;100372.28;4082072;29;20066;-68
2022/06/05 06:35:45;;;;;;;12.20;10.98;;;;;;;19.92;76.10;100376.56;4082391;29;20095;-68
2022/06/05 06:37:48;;;;;;;10.93;9.63;;;;;;;19.89;76.46;100377.53;4082648;29;20140;-68
2022/06/05 06:39:52;;;;;;;11.40;10.35;;;;;;;19.92;76.62;100381.81;4076689;29;20038;-68
2022/06/05 06:41:56;;;;;;;11.85;10.85;;;;;;;19.91;76.61;100369.56;4085325;29;20122;-69
2022/06/05 06:44:00;;;;;;;13.30;12.00;;;;;;;20.09;76.02;100355.84;4085498;29;20388;-69
2022/06/05 06:46:04;;;;;;;12.82;11.32;;;;;;;20.06;75.55;100353.31;4085293;29;20071;-70
2022/06/05 06:48:08;;;;;;;12.90;9.60;;;;;;;19.98;76.58;100344.75;4085080;29;20044;-68
2022/06/05 06:50:13;;;;;;;13.57;12.38;;;;;;;20.05;76.41;100351.59;4065369;29;20842;-67
2022/06/05 06:52:16;;;;;;;13.38;12.13;;;;;;;20.08;76.67;100350.63;4083458;29;20561;-67
2022/06/05 06:54:19;;;;;;;12.32;11.10;;;;;;;20.10;76.34;100336.50;4079419;29;20531;-67
2022/06/05 06:56:26;;;;;;;14.88;13.23;;;;;;;20.22;75.57;100330.88;4080801;29;20451;-67
2022/06/05 06:58:29;;;;;;;10.93;9.82;;;;;;;20.14;75.62;100335.50;4083590;29;20048;-68
2022/06/05 07:00:32;;;;;;;12.68;11.43;;;;;;;20.07;75.62;100331.31;4084610;29;20047;-70
2022/06/05 07:02:35;;;;;;;12.57;11.43;;;;;;;20.10;75.59;100328.56;4083548;29;20044;-64
2022/06/05 07:04:38;;;;;;;13.85;11.63;;;;;;;20.11;75.85;100326.81;4084852;29;20044;-70
2022/06/05 07:06:41;;;;;;;12.65;11.25;;;;;;;20.17;75.56;100329.28;4082794;29;20047;-69
2022/06/05 07:08:45;;;;;;;11.65;9.23;;;;;;;20.13;75.35;100330.28;4083812;29;20063;-68
2022/06/05 07:10:48;;;;;;;12.40;11.20;;;;;;;20.09;75.60;100336.53;4082847;29;20044;-68
2022/06/05 07:12:52;;;;;;;10.55;9.45;;;;;;;20.07;75.26;100341.84;4078247;29;20044;-69
2022/06/05 07:14:55;;;;;;;10.57;9.50;;;;;;;20.08;75.75;100340.06;4084848;29;20035;-71
2022/06/05 07:16:58;;;;;;;11.48;10.35;;;;;;;20.12;75.99;100353.16;4081950;29;20106;-66
2022/06/05 07:19:01;;;;;;;11.63;10.60;;;;;;;20.15;75.82;100357.47;4082668;29;20039;-68
2022/06/05 07:21:08;;;;;;;11.38;10.32;;;;;;;20.18;75.67;100352.09;4080359;29;20415;-69
2022/06/05 07:23:13;;;;;;;12.15;11.05;;;;;;;20.23;75.02;100343.16;4083093;29;20051;-68
2022/06/05 07:25:15;;;;;;;10.85;9.85;;;;;;;20.15;75.39;100337.25;4081953;29;20078;-67
2022/06/05 07:27:19;;;;;;;11.48;10.38;;;;;;;20.14;75.20;100337.28;4083190;29;20139;-70
2022/06/05 07:29:23;;;;;;;10.65;9.73;;;;;;;20.20;74.50;100329.19;4082557;29;20435;-68
2022/06/05 07:31:29;;;;;;;9.57;8.63;;;;;;;20.20;74.56;100335.31;4081240;29;20039;-67
2022/06/05 07:33:34;;;;;;;12.32;10.73;;;;;;;20.26;74.96;100322.88;4082864;29;20451;-67
2022/06/05 07:35:36;;;;;;;;;;;;;;;20.35;74.22;100315.53;4082937;29;20058;-67
2022/06/05 07:37:39;;;;;;;12.77;11.57;;;;;;;20.40;73.07;100305.72;4076398;29;20313;-65
2022/06/05 07:40:02;;;;;;;11.57;10.40;;;;;;;20.29;73.20;100301.66;4076151;29;20051;-65
2022/06/05 07:42:06;;;;;;;11.40;10.30;;;;;;;20.16;74.36;100296.72;4078866;29;20127;-67
2022/06/05 07:44:09;;;;;;;10.20;9.23;;;;;;;20.16;74.71;100302.00;4065276;29;20048;-67
2022/06/05 07:46:13;;;;;;;8.98;8.07;;;;;;;20.13;74.85;100288.03;4081417;29;20471;-67
2022/06/05 07:48:19;;;;;;;10.77;9.63;;;;;;;20.11;74.36;100289.88;4096916;28;20051;-66
2022/06/05 07:50:23;;;;;;;8.90;8.00;;;;;;;20.12;74.29;100288.94;4078858;29;20127;-66
2022/06/05 07:54:46;;;;;;;15.18;10.68;;;;;;;20.10;75.72;100283.69;4081000;29;20499;-65
2022/06/05 07:56:49;;;;;;;11.20;10.13;;;;;;;20.12;76.02;100271.34;4079772;29;20054;-65
2022/06/05 07:58:54;;;;;;;11.15;9.32;;;;;;;20.13;76.11;100269.56;4081187;29;20036;-64
2022/06/05 08:01:18;;;;;;;11.30;10.30;;;;;;;20.04;76.69;100279.47;4080706;29;20046;-65
2022/06/05 08:03:21;;;;;;;;;;;;;;;19.92;77.00;100268.38;4081387;29;20051;-65
2022/06/05 08:05:24;;;;;;;10.45;9.45;;;;;;;19.96;76.41;100267.38;4081020;29;20017;-65
2022/06/05 08:07:30;;;;;;;9.30;8.40;;;;;;;20.02;75.96;100270.72;4073358;29;20499;-66
2022/06/05 08:09:34;;;;;;;10.27;9.27;;;;;;;20.03;76.13;100269.84;4077366;29;20044;-66
2022/06/05 08:11:39;;;;;;;;;;;;;;;19.89;76.94;100266.72;4078923;29;20056;-64
2022/06/05 08:13:45;;;;;;;10.20;9.27;;;;;;;20.00;76.83;100272.53;4080908;29;19923;-64
2022/06/05 08:15:49;;;;;;;9.88;8.73;;;;;;;20.05;76.81;100278.56;4073689;29;20063;-65
2022/06/05 08:17:53;;;;;;;8.50;7.70;;;;;;;19.98;75.72;100291.97;4069511;29;20586;-64
2022/06/05 08:19:57;;;;;;;10.95;9.57;;;;;;;19.99;76.04;100301.59;4082739;29;20123;-62
2022/06/05 08:22:01;;;;;;;10.00;8.68;;;;;;;19.98;75.71;100310.44;4077646;28;20059;-62
2022/06/05 08:24:05;;;;;;;9.07;8.18;;;;;;;19.94;74.51;100306.16;4078171;29;20579;-63
2022/06/05 08:26:08;;;;;;;10.63;8.07;;;;;;;19.87;74.40;100302.81;4080016;29;20048;-64
2022/06/05 08:28:11;;;;;;;8.43;7.57;;;;;;;19.87;74.79;100305.44;4078483;29;20044;-65
2022/06/05 08:30:14;;;;;;;10.02;9.13;;;;;;;19.93;74.19;100309.69;4074137;29;20142;-63
2022/06/05 08:32:17;;;;;;;9.55;8.32;;;;;;;19.99;74.82;100313.03;4079645;29;20063;-64
2022/06/05 08:34:22;;;;;;;8.82;7.90;;;;;;;19.95;75.31;100308.75;4073413;29;20070;-64
2022/06/05 08:36:26;;;;;;;10.68;8.35;;;;;;;19.92;74.09;100313.22;4078222;29;20070;-65
2022/06/05 08:43:33;;;;;;;10.90;8.75;;;;;;;19.98;73.50;100321.84;4076082;29;20554;-65
2022/06/05 08:45:43;;;;;;;11.20;8.30;;;;;;;19.97;73.73;100316.63;4096935;28;20438;-65
2022/06/05 08:47:53;;;;;;;17.73;8.88;;;;;;;20.10;73.93;100314.53;4081056;29;20048;-65
2022/06/05 08:50:04;;;;;;;9.88;8.02;;;;;;;20.19;73.69;100317.78;4080811;29;20067;-65
2022/06/05 08:52:19;;;;;;;12.73;7.93;;;;;;;20.17;73.34;100318.72;4080428;29;20388;-64
2022/06/05 08:54:24;;;;;;;;;;;;;;;20.08;73.54;100318.97;4078516;29;20044;-66
2022/06/05 08:56:31;;;;;;;;;;;;;;;20.04;73.76;100321.69;4079350;29;19948;-64
2022/06/05 08:58:45;;;;;;;9.95;7.55;;;;;;;20.17;73.05;100316.09;4081731;29;19930;-63
2022/06/05 09:00:51;;;;;;;8.73;7.78;;;;;;;20.18;73.00;100326.59;4074433;29;20046;-63
2022/06/05 09:03:01;;;;;;;12.45;9.35;;;;;;;20.26;72.40;100338.72;4079316;29;20060;-63
2022/06/05 09:05:12;;;;;;;10.25;9.02;;;;;;;20.34;73.29;100339.34;4079835;29;20035;-63
2022/06/05 09:07:17;;;;;;;12.73;9.38;;;;;;;20.37;72.75;100341.91;4075626;29;20563;-62
2022/06/05 09:09:25;;;;;;;10.02;8.98;;;;;;;20.45;72.28;100339.06;4073056;29;20048;-63
2022/06/05 09:11:37;;;;;;;11.77;10.00;;;;;;;20.50;72.90;100342.41;4080386;29;20559;-65
2022/06/05 09:13:45;;;;;;;11.15;8.68;;;;;;;20.58;72.67;100340.44;4078701;29;20122;-65
2022/06/05 09:15:55;;;;;;;9.60;7.55;;;;;;;20.55;71.90;100344.03;4093109;28;20142;-62
2022/06/05 09:18:00;;;;;;;10.45;7.78;;;;;;;20.69;71.69;100345.41;4080188;29;20381;-66
2022/06/05 09:20:04;;;;;;;8.27;7.05;;;;;;;20.77;71.97;100346.06;4076579;29;20122;-65
2022/06/05 09:22:17;;;;;;;8.05;6.43;;;;;;;20.90;72.63;100354.50;4092104;28;20043;-65
2022/06/05 09:24:28;;;;;;;9.90;8.85;;;;;;;20.95;71.83;100359.63;4079776;29;20046;-65
2022/06/05 09:26:42;;;;;;;11.02;8.63;;;;;;;21.05;72.09;100354.00;4063395;29;20496;-65
2022/06/05 09:29:00;;;;;;;10.82;7.72;;;;;;;21.06;70.32;100368.13;4075835;29;20067;-65
2022/06/05 09:31:21;;;;;;;9.02;7.10;;;;;;;21.08;70.29;100361.00;4078149;29;20036;-64
2022/06/05 09:33:30;;;;;;;10.43;7.40;;;;;;;21.00;70.10;100355.09;4076885;29;20582;-65
2022/06/05 09:35:37;;;;;;;11.40;7.78;;;;;;;21.14;70.21;100347.56;4073439;29;20048;-64
2022/06/05 09:37:53;;;;;;;9.57;7.88;;;;;;;21.38;68.90;100347.72;4077054;29;20131;-65
2022/06/05 09:39:59;;;;;;;9.68;8.32;;;;;;;21.64;67.54;100331.03;4082050;29;20046;-65
2022/06/05 09:42:29;;;;;;;11.27;8.00;;;;;;;21.68;66.98;100319.41;4080125;29;20396;-66
2022/06/05 09:44:50;;;;;;;10.30;9.30;;;;;;;21.83;68.23;100309.22;4076899;29;20044;-66
2022/06/05 09:46:59;;;;;;;9.50;8.27;;;;;;;22.00;65.19;100303.31;4081487;29;20039;-65
2022/06/05 09:49:09;;;;;;;10.80;8.75;;;;;;;22.00;64.44;100308.63;4081875;29;20572;-66
2022/06/05 09:51:16;;;;;;;11.52;7.18;;;;;;;21.92;64.28;100308.91;4078408;29;20079;-66
2022/06/05 09:53:27;;;;;;;9.07;6.93;;;;;;;21.99;65.22;100312.19;4082690;29;20517;-66
2022/06/05 09:55:55;;;;;;;8.75;6.93;;;;;;;22.07;65.00;100304.84;4079896;29;20507;-69